sensor_id;sensor_type;location;lat;lon;timestamp;P1;durP1;ratioP1;P2;durP2;ratioP2
71164;SDS011;58859;55.132;-1.586;2023-02-01T00:01:54;1.15;;;0.52;;
71164;SDS011;58859;55.132;-1.586;2023-02-01T00:04:19;2.67;;;0.60;;
71164;SDS011;58859;55.132;-1.586;2023-02-01T00:06:45;3.17;;;1.00;;
71164;SDS011;58859;55.132;-1.586;2023-02-01T00:09:11;0.60;;;0.60;;
71164;SDS011;58859;55.132;-1.586;2023-02-01T00:11:36;1.73;;;0.63;;
71164;SDS011;58859;55.132;-1.586;2023-02-01T00:14:02;0.90;;;0.90;;
71164;SDS011;58859;55.132;-1.586;2023-02-01T00:16:28;0.57;;;0.57;;
71164;SDS011;58859;55.132;-1.586;2023-02-01T00:18:59;2.20;;;0.80;;
71164;SDS011;58859;55.132;-1.586;2023-02-01T00:21:29;1.17;;;1.00;;
71164;SDS011;58859;55.132;-1.586;2023-02-01T00:23:55;2.05;;;0.80;;
71164;SDS011;58859;55.132;-1.586;2023-02-01T00:26:34;4.13;;;1.00;;
71164;SDS011;58859;55.132;-1.586;2023-02-01T00:29:01;1.42;;;0.70;;
71164;SDS011;58859;55.132;-1.586;2023-02-01T00:31:29;1.70;;;0.50;;
71164;SDS011;58859;55.132;-1.586;2023-02-01T00:33:54;3.07;;;0.90;;
71164;SDS011;58859;55.132;-1.586;2023-02-01T00:36:20;2.07;;;0.73;;
71164;SDS011;58859;55.132;-1.586;2023-02-01T00:38:45;3.20;;;1.30;;
71164;SDS011;58859;55.132;-1.586;2023-02-01T00:41:12;2.60;;;0.90;;
71164;SDS011;58859;55.132;-1.586;2023-02-01T00:43:41;1.23;;;1.20;;
71164;SDS011;58859;55.132;-1.586;2023-02-01T00:46:07;1.93;;;0.70;;
71164;SDS011;58859;55.132;-1.586;2023-02-01T00:48:33;1.77;;;1.20;;
71164;SDS011;58859;55.132;-1.586;2023-02-01T00:50:59;1.73;;;1.10;;
71164;SDS011;58859;55.132;-1.586;2023-02-01T00:53:28;2.53;;;1.20;;
71164;SDS011;58859;55.132;-1.586;2023-02-01T00:55:54;1.27;;;0.87;;
71164;SDS011;58859;55.132;-1.586;2023-02-01T00:58:19;0.63;;;0.63;;
71164;SDS011;58859;55.132;-1.586;2023-02-01T01:00:44;2.38;;;0.70;;
71164;SDS011;58859;55.132;-1.586;2023-02-01T01:03:11;0.70;;;0.70;;
71164;SDS011;58859;55.132;-1.586;2023-02-01T01:05:48;0.82;;;0.50;;
71164;SDS011;58859;55.132;-1.586;2023-02-01T01:08:14;3.10;;;0.65;;
71164;SDS011;58859;55.132;-1.586;2023-02-01T01:10:41;1.30;;;0.63;;
71164;SDS011;58859;55.132;-1.586;2023-02-01T01:13:06;1.10;;;0.65;;
71164;SDS011;58859;55.132;-1.586;2023-02-01T01:15:36;1.38;;;0.75;;
71164;SDS011;58859;55.132;-1.586;2023-02-01T01:18:02;1.13;;;0.60;;
71164;SDS011;58859;55.132;-1.586;2023-02-01T01:20:28;1.58;;;0.80;;
71164;SDS011;58859;55.132;-1.586;2023-02-01T01:22:54;1.80;;;0.70;;
71164;SDS011;58859;55.132;-1.586;2023-02-01T01:25:19;1.70;;;0.67;;
71164;SDS011;58859;55.132;-1.586;2023-02-01T01:27:44;1.27;;;0.83;;
71164;SDS011;58859;55.132;-1.586;2023-02-01T01:30:10;0.75;;;0.50;;
71164;SDS011;58859;55.132;-1.586;2023-02-01T01:32:35;1.27;;;0.67;;
71164;SDS011;58859;55.132;-1.586;2023-02-01T01:35:01;3.13;;;0.83;;
71164;SDS011;58859;55.132;-1.586;2023-02-01T01:37:26;1.55;;;0.73;;
71164;SDS011;58859;55.132;-1.586;2023-02-01T01:39:52;3.13;;;0.97;;
71164;SDS011;58859;55.132;-1.586;2023-02-01T01:42:17;2.07;;;0.73;;
71164;SDS011;58859;55.132;-1.586;2023-02-01T01:44:59;8.30;;;1.50;;
71164;SDS011;58859;55.132;-1.586;2023-02-01T01:47:29;2.28;;;1.00;;
71164;SDS011;58859;55.132;-1.586;2023-02-01T01:49:58;4.20;;;0.80;;
71164;SDS011;58859;55.132;-1.586;2023-02-01T01:52:23;3.43;;;0.80;;
71164;SDS011;58859;55.132;-1.586;2023-02-01T01:54:50;4.03;;;0.93;;
71164;SDS011;58859;55.132;-1.586;2023-02-01T01:57:20;6.18;;;1.13;;
71164;SDS011;58859;55.132;-1.586;2023-02-01T01:59:50;3.40;;;0.98;;
71164;SDS011;58859;55.132;-1.586;2023-02-01T02:02:20;2.30;;;0.90;;
71164;SDS011;58859;55.132;-1.586;2023-02-01T02:04:45;1.15;;;0.82;;
71164;SDS011;58859;55.132;-1.586;2023-02-01T02:07:11;7.03;;;1.00;;
71164;SDS011;58859;55.132;-1.586;2023-02-01T02:09:41;2.67;;;0.75;;
71164;SDS011;58859;55.132;-1.586;2023-02-01T02:12:08;2.63;;;1.00;;
71164;SDS011;58859;55.132;-1.586;2023-02-01T02:14:33;2.67;;;1.20;;
71164;SDS011;58859;55.132;-1.586;2023-02-01T02:30:44;4.60;;;1.23;;
71164;SDS011;58859;55.132;-1.586;2023-02-01T02:39:06;5.28;;;1.25;;
71164;SDS011;58859;55.132;-1.586;2023-02-01T02:45:00;2.53;;;1.10;;
71164;SDS011;58859;55.132;-1.586;2023-02-01T02:47:59;5.03;;;1.00;;
71164;SDS011;58859;55.132;-1.586;2023-02-01T02:50:35;1.50;;;0.93;;
71164;SDS011;58859;55.132;-1.586;2023-02-01T02:53:27;2.00;;;1.15;;
71164;SDS011;58859;55.132;-1.586;2023-02-01T02:56:22;0.77;;;0.77;;
71164;SDS011;58859;55.132;-1.586;2023-02-01T02:59:07;2.93;;;0.80;;
71164;SDS011;58859;55.132;-1.586;2023-02-01T03:01:52;2.05;;;0.90;;
71164;SDS011;58859;55.132;-1.586;2023-02-01T03:04:37;3.58;;;1.17;;
71164;SDS011;58859;55.132;-1.586;2023-02-01T03:08:09;2.25;;;1.45;;
71164;SDS011;58859;55.132;-1.586;2023-02-01T03:10:09;3.38;;;0.82;;
71164;SDS011;58859;55.132;-1.586;2023-02-01T03:12:37;1.50;;;1.00;;
71164;SDS011;58859;55.132;-1.586;2023-02-01T03:15:34;3.22;;;1.00;;
71164;SDS011;58859;55.132;-1.586;2023-02-01T03:18:04;3.53;;;0.93;;
71164;SDS011;58859;55.132;-1.586;2023-02-01T03:20:35;2.38;;;1.40;;
71164;SDS011;58859;55.132;-1.586;2023-02-01T03:23:01;3.50;;;1.67;;
71164;SDS011;58859;55.132;-1.586;2023-02-01T03:25:29;4.20;;;0.90;;
71164;SDS011;58859;55.132;-1.586;2023-02-01T03:28:03;3.63;;;1.55;;
71164;SDS011;58859;55.132;-1.586;2023-02-01T03:30:30;7.13;;;1.88;;
71164;SDS011;58859;55.132;-1.586;2023-02-01T03:32:59;6.93;;;1.90;;
71164;SDS011;58859;55.132;-1.586;2023-02-01T03:35:27;6.22;;;1.15;;
71164;SDS011;58859;55.132;-1.586;2023-02-01T03:40:46;3.33;;;1.00;;
71164;SDS011;58859;55.132;-1.586;2023-02-01T03:43:16;5.63;;;1.52;;
71164;SDS011;58859;55.132;-1.586;2023-02-01T03:45:44;3.55;;;1.50;;
71164;SDS011;58859;55.132;-1.586;2023-02-01T03:48:12;6.35;;;1.58;;
71164;SDS011;58859;55.132;-1.586;2023-02-01T03:50:39;0.93;;;0.93;;
71164;SDS011;58859;55.132;-1.586;2023-02-01T03:53:14;1.20;;;0.77;;
71164;SDS011;58859;55.132;-1.586;2023-02-01T03:55:43;3.75;;;1.60;;
71164;SDS011;58859;55.132;-1.586;2023-02-01T03:58:18;10.13;;;1.40;;
71164;SDS011;58859;55.132;-1.586;2023-02-01T04:00:45;3.13;;;1.20;;
71164;SDS011;58859;55.132;-1.586;2023-02-01T04:03:15;9.73;;;1.98;;
71164;SDS011;58859;55.132;-1.586;2023-02-01T04:05:41;1.87;;;1.17;;
71164;SDS011;58859;55.132;-1.586;2023-02-01T04:08:06;3.90;;;1.37;;
71164;SDS011;58859;55.132;-1.586;2023-02-01T04:10:31;6.88;;;1.25;;
71164;SDS011;58859;55.132;-1.586;2023-02-01T04:12:57;4.93;;;1.30;;
71164;SDS011;58859;55.132;-1.586;2023-02-01T04:15:23;4.93;;;1.13;;
71164;SDS011;58859;55.132;-1.586;2023-02-01T04:17:48;7.17;;;1.67;;
71164;SDS011;58859;55.132;-1.586;2023-02-01T04:20:14;3.77;;;1.67;;
71164;SDS011;58859;55.132;-1.586;2023-02-01T04:22:39;4.30;;;1.13;;
71164;SDS011;58859;55.132;-1.586;2023-02-01T04:25:05;6.72;;;1.25;;
71164;SDS011;58859;55.132;-1.586;2023-02-01T04:27:31;9.03;;;1.13;;
71164;SDS011;58859;55.132;-1.586;2023-02-01T04:29:57;4.70;;;0.98;;
71164;SDS011;58859;55.132;-1.586;2023-02-01T04:32:22;4.73;;;1.10;;
71164;SDS011;58859;55.132;-1.586;2023-02-01T04:34:47;16.33;;;2.00;;
71164;SDS011;58859;55.132;-1.586;2023-02-01T04:37:13;5.60;;;1.30;;
71164;SDS011;58859;55.132;-1.586;2023-02-01T04:39:38;3.90;;;1.43;;
71164;SDS011;58859;55.132;-1.586;2023-02-01T04:42:04;9.13;;;1.73;;
71164;SDS011;58859;55.132;-1.586;2023-02-01T04:44:29;3.67;;;0.73;;
71164;SDS011;58859;55.132;-1.586;2023-02-01T04:46:54;7.38;;;1.77;;
71164;SDS011;58859;55.132;-1.586;2023-02-01T04:49:20;6.40;;;1.58;;
71164;SDS011;58859;55.132;-1.586;2023-02-01T04:51:46;8.93;;;1.50;;
71164;SDS011;58859;55.132;-1.586;2023-02-01T04:54:11;7.88;;;1.67;;
71164;SDS011;58859;55.132;-1.586;2023-02-01T04:56:37;7.77;;;1.50;;
71164;SDS011;58859;55.132;-1.586;2023-02-01T04:59:03;5.37;;;1.97;;
71164;SDS011;58859;55.132;-1.586;2023-02-01T05:01:28;4.45;;;1.00;;
71164;SDS011;58859;55.132;-1.586;2023-02-01T05:03:54;4.83;;;1.00;;
71164;SDS011;58859;55.132;-1.586;2023-02-01T05:06:20;2.70;;;1.05;;
71164;SDS011;58859;55.132;-1.586;2023-02-01T05:08:45;4.65;;;1.30;;
71164;SDS011;58859;55.132;-1.586;2023-02-01T05:11:11;3.05;;;0.90;;
71164;SDS011;58859;55.132;-1.586;2023-02-01T05:13:56;4.93;;;1.23;;
71164;SDS011;58859;55.132;-1.586;2023-02-01T05:16:22;5.85;;;1.40;;
71164;SDS011;58859;55.132;-1.586;2023-02-01T05:18:47;2.67;;;0.90;;
71164;SDS011;58859;55.132;-1.586;2023-02-01T05:21:13;1.08;;;0.82;;
71164;SDS011;58859;55.132;-1.586;2023-02-01T05:23:38;8.40;;;1.70;;
71164;SDS011;58859;55.132;-1.586;2023-02-01T05:26:22;1.52;;;0.88;;
71164;SDS011;58859;55.132;-1.586;2023-02-01T05:28:48;3.20;;;1.00;;
71164;SDS011;58859;55.132;-1.586;2023-02-01T05:31:13;4.00;;;1.77;;
71164;SDS011;58859;55.132;-1.586;2023-02-01T05:33:39;3.43;;;1.00;;
71164;SDS011;58859;55.132;-1.586;2023-02-01T05:36:04;1.65;;;0.80;;
71164;SDS011;58859;55.132;-1.586;2023-02-01T05:38:30;6.22;;;1.00;;
71164;SDS011;58859;55.132;-1.586;2023-02-01T05:40:55;3.43;;;1.03;;
71164;SDS011;58859;55.132;-1.586;2023-02-01T05:43:21;5.05;;;1.20;;
71164;SDS011;58859;55.132;-1.586;2023-02-01T05:45:47;2.67;;;0.77;;
71164;SDS011;58859;55.132;-1.586;2023-02-01T05:48:13;2.42;;;0.82;;
71164;SDS011;58859;55.132;-1.586;2023-02-01T05:50:38;2.83;;;0.83;;
71164;SDS011;58859;55.132;-1.586;2023-02-01T05:53:04;3.33;;;1.17;;
71164;SDS011;58859;55.132;-1.586;2023-02-01T05:55:29;2.70;;;0.55;;
71164;SDS011;58859;55.132;-1.586;2023-02-01T05:57:54;2.60;;;0.90;;
71164;SDS011;58859;55.132;-1.586;2023-02-01T06:00:20;5.70;;;1.13;;
71164;SDS011;58859;55.132;-1.586;2023-02-01T06:02:46;3.83;;;0.80;;
71164;SDS011;58859;55.132;-1.586;2023-02-01T06:05:11;2.33;;;1.50;;
71164;SDS011;58859;55.132;-1.586;2023-02-01T06:07:37;1.30;;;0.50;;
71164;SDS011;58859;55.132;-1.586;2023-02-01T06:10:02;2.35;;;0.75;;
71164;SDS011;58859;55.132;-1.586;2023-02-01T06:12:28;3.03;;;0.80;;
71164;SDS011;58859;55.132;-1.586;2023-02-01T06:14:54;3.17;;;0.73;;
71164;SDS011;58859;55.132;-1.586;2023-02-01T06:17:19;8.88;;;1.38;;
71164;SDS011;58859;55.132;-1.586;2023-02-01T06:19:44;2.90;;;0.90;;
71164;SDS011;58859;55.132;-1.586;2023-02-01T06:22:10;1.90;;;0.97;;
71164;SDS011;58859;55.132;-1.586;2023-02-01T06:24:35;2.30;;;0.53;;
71164;SDS011;58859;55.132;-1.586;2023-02-01T06:27:01;4.13;;;0.87;;
71164;SDS011;58859;55.132;-1.586;2023-02-01T06:29:26;3.92;;;1.63;;
71164;SDS011;58859;55.132;-1.586;2023-02-01T06:31:52;6.40;;;0.90;;
71164;SDS011;58859;55.132;-1.586;2023-02-01T06:34:17;2.73;;;0.93;;
71164;SDS011;58859;55.132;-1.586;2023-02-01T06:36:43;2.20;;;0.60;;
71164;SDS011;58859;55.132;-1.586;2023-02-01T06:39:08;1.02;;;0.52;;
71164;SDS011;58859;55.132;-1.586;2023-02-01T06:41:34;2.20;;;0.80;;
71164;SDS011;58859;55.132;-1.586;2023-02-01T06:43:59;1.33;;;0.83;;
71164;SDS011;58859;55.132;-1.586;2023-02-01T06:46:25;2.45;;;1.15;;
71164;SDS011;58859;55.132;-1.586;2023-02-01T06:48:50;0.63;;;0.63;;
71164;SDS011;58859;55.132;-1.586;2023-02-01T06:51:20;3.10;;;0.87;;
71164;SDS011;58859;55.132;-1.586;2023-02-01T06:53:46;3.40;;;0.70;;
71164;SDS011;58859;55.132;-1.586;2023-02-01T06:56:11;2.07;;;0.90;;
71164;SDS011;58859;55.132;-1.586;2023-02-01T06:58:36;2.80;;;0.80;;
71164;SDS011;58859;55.132;-1.586;2023-02-01T07:01:05;1.30;;;1.20;;
71164;SDS011;58859;55.132;-1.586;2023-02-01T07:03:31;3.35;;;0.75;;
71164;SDS011;58859;55.132;-1.586;2023-02-01T07:05:56;3.33;;;0.73;;
71164;SDS011;58859;55.132;-1.586;2023-02-01T07:08:24;0.70;;;0.65;;
71164;SDS011;58859;55.132;-1.586;2023-02-01T07:10:49;2.17;;;0.80;;
71164;SDS011;58859;55.132;-1.586;2023-02-01T07:13:15;2.63;;;0.85;;
71164;SDS011;58859;55.132;-1.586;2023-02-01T07:15:40;5.97;;;1.93;;
71164;SDS011;58859;55.132;-1.586;2023-02-01T07:18:06;4.53;;;1.20;;
71164;SDS011;58859;55.132;-1.586;2023-02-01T07:20:31;3.90;;;1.80;;
71164;SDS011;58859;55.132;-1.586;2023-02-01T07:22:56;3.17;;;0.80;;
71164;SDS011;58859;55.132;-1.586;2023-02-01T07:25:22;1.13;;;0.82;;
71164;SDS011;58859;55.132;-1.586;2023-02-01T07:27:48;4.70;;;0.80;;
71164;SDS011;58859;55.132;-1.586;2023-02-01T07:30:14;2.20;;;1.17;;
71164;SDS011;58859;55.132;-1.586;2023-02-01T07:32:39;5.57;;;1.30;;
71164;SDS011;58859;55.132;-1.586;2023-02-01T07:35:04;1.10;;;0.90;;
71164;SDS011;58859;55.132;-1.586;2023-02-01T07:37:30;2.88;;;1.67;;
71164;SDS011;58859;55.132;-1.586;2023-02-01T07:39:55;6.50;;;1.43;;
71164;SDS011;58859;55.132;-1.586;2023-02-01T07:42:21;5.57;;;2.10;;
71164;SDS011;58859;55.132;-1.586;2023-02-01T07:44:46;8.93;;;1.67;;
71164;SDS011;58859;55.132;-1.586;2023-02-01T07:47:12;5.05;;;1.13;;
71164;SDS011;58859;55.132;-1.586;2023-02-01T07:49:37;3.97;;;1.37;;
71164;SDS011;58859;55.132;-1.586;2023-02-01T07:52:03;3.93;;;1.70;;
71164;SDS011;58859;55.132;-1.586;2023-02-01T07:54:28;5.37;;;1.73;;
71164;SDS011;58859;55.132;-1.586;2023-02-01T07:56:54;0.93;;;0.80;;
71164;SDS011;58859;55.132;-1.586;2023-02-01T07:59:19;3.27;;;1.17;;
71164;SDS011;58859;55.132;-1.586;2023-02-01T08:01:44;2.90;;;1.03;;
71164;SDS011;58859;55.132;-1.586;2023-02-01T08:04:13;4.27;;;1.10;;
71164;SDS011;58859;55.132;-1.586;2023-02-01T08:06:38;3.90;;;1.67;;
71164;SDS011;58859;55.132;-1.586;2023-02-01T08:09:04;1.25;;;0.75;;
71164;SDS011;58859;55.132;-1.586;2023-02-01T08:11:30;2.77;;;0.70;;
71164;SDS011;58859;55.132;-1.586;2023-02-01T08:13:56;2.75;;;0.80;;
71164;SDS011;58859;55.132;-1.586;2023-02-01T08:16:22;1.23;;;0.88;;
71164;SDS011;58859;55.132;-1.586;2023-02-01T08:18:48;1.93;;;0.70;;
71164;SDS011;58859;55.132;-1.586;2023-02-01T08:23:40;1.92;;;1.17;;
71164;SDS011;58859;55.132;-1.586;2023-02-01T08:26:10;2.92;;;0.90;;
71164;SDS011;58859;55.132;-1.586;2023-02-01T08:28:37;3.03;;;0.68;;
71164;SDS011;58859;55.132;-1.586;2023-02-01T08:31:07;0.82;;;0.75;;
71164;SDS011;58859;55.132;-1.586;2023-02-01T08:33:33;7.00;;;1.73;;
71164;SDS011;58859;55.132;-1.586;2023-02-01T08:36:06;4.55;;;1.30;;
71164;SDS011;58859;55.132;-1.586;2023-02-01T08:38:32;2.30;;;1.17;;
71164;SDS011;58859;55.132;-1.586;2023-02-01T08:41:03;1.67;;;0.95;;
71164;SDS011;58859;55.132;-1.586;2023-02-01T08:43:30;6.70;;;1.23;;
71164;SDS011;58859;55.132;-1.586;2023-02-01T08:45:55;3.73;;;1.00;;
71164;SDS011;58859;55.132;-1.586;2023-02-01T08:48:21;8.98;;;2.17;;
71164;SDS011;58859;55.132;-1.586;2023-02-01T08:50:46;2.90;;;1.20;;
71164;SDS011;58859;55.132;-1.586;2023-02-01T08:53:12;4.07;;;1.00;;
71164;SDS011;58859;55.132;-1.586;2023-02-01T08:55:39;4.18;;;1.13;;
71164;SDS011;58859;55.132;-1.586;2023-02-01T08:58:04;5.10;;;1.20;;
71164;SDS011;58859;55.132;-1.586;2023-02-01T09:00:29;6.60;;;1.30;;
71164;SDS011;58859;55.132;-1.586;2023-02-01T09:02:55;3.87;;;1.37;;
71164;SDS011;58859;55.132;-1.586;2023-02-01T09:05:20;7.45;;;1.50;;
71164;SDS011;58859;55.132;-1.586;2023-02-01T09:07:47;3.40;;;1.20;;
71164;SDS011;58859;55.132;-1.586;2023-02-01T09:10:12;4.95;;;1.40;;
71164;SDS011;58859;55.132;-1.586;2023-02-01T09:12:38;3.63;;;0.93;;
71164;SDS011;58859;55.132;-1.586;2023-02-01T09:15:03;2.83;;;1.20;;
71164;SDS011;58859;55.132;-1.586;2023-02-01T09:17:32;1.98;;;1.10;;
71164;SDS011;58859;55.132;-1.586;2023-02-01T09:19:57;7.37;;;1.33;;
71164;SDS011;58859;55.132;-1.586;2023-02-01T09:22:23;6.78;;;1.30;;
71164;SDS011;58859;55.132;-1.586;2023-02-01T09:24:48;6.07;;;1.20;;
71164;SDS011;58859;55.132;-1.586;2023-02-01T09:27:14;5.93;;;0.93;;
71164;SDS011;58859;55.132;-1.586;2023-02-01T09:29:39;6.10;;;1.33;;
71164;SDS011;58859;55.132;-1.586;2023-02-01T09:32:05;6.00;;;1.08;;
71164;SDS011;58859;55.132;-1.586;2023-02-01T09:34:31;6.78;;;1.30;;
71164;SDS011;58859;55.132;-1.586;2023-02-01T09:36:57;6.82;;;1.75;;
71164;SDS011;58859;55.132;-1.586;2023-02-01T09:39:22;8.83;;;1.67;;
71164;SDS011;58859;55.132;-1.586;2023-02-01T09:41:56;4.43;;;1.33;;
71164;SDS011;58859;55.132;-1.586;2023-02-01T09:47:13;10.90;;;1.73;;
71164;SDS011;58859;55.132;-1.586;2023-02-01T09:49:43;4.60;;;1.20;;
71164;SDS011;58859;55.132;-1.586;2023-02-01T09:52:12;3.78;;;1.10;;
71164;SDS011;58859;55.132;-1.586;2023-02-01T09:57:08;4.75;;;1.10;;
71164;SDS011;58859;55.132;-1.586;2023-02-01T10:05:01;6.90;;;2.05;;
71164;SDS011;58859;55.132;-1.586;2023-02-01T10:13:01;10.65;;;2.17;;
71164;SDS011;58859;55.132;-1.586;2023-02-01T10:18:23;11.55;;;1.88;;
71164;SDS011;58859;55.132;-1.586;2023-02-01T10:26:46;6.95;;;1.83;;
71164;SDS011;58859;55.132;-1.586;2023-02-01T10:29:19;7.28;;;1.58;;
71164;SDS011;58859;55.132;-1.586;2023-02-01T10:31:45;7.93;;;2.28;;
71164;SDS011;58859;55.132;-1.586;2023-02-01T10:34:15;7.87;;;2.40;;
71164;SDS011;58859;55.132;-1.586;2023-02-01T10:39:15;5.82;;;1.98;;
71164;SDS011;58859;55.132;-1.586;2023-02-01T10:41:41;8.30;;;1.77;;
71164;SDS011;58859;55.132;-1.586;2023-02-01T10:44:10;5.32;;;1.80;;
71164;SDS011;58859;55.132;-1.586;2023-02-01T10:46:38;11.60;;;3.40;;
71164;SDS011;58859;55.132;-1.586;2023-02-01T10:49:04;11.90;;;4.40;;
71164;SDS011;58859;55.132;-1.586;2023-02-01T10:54:20;20.57;;;4.17;;
71164;SDS011;58859;55.132;-1.586;2023-02-01T10:56:48;18.80;;;4.18;;
71164;SDS011;58859;55.132;-1.586;2023-02-01T10:59:15;11.55;;;2.53;;
71164;SDS011;58859;55.132;-1.586;2023-02-01T11:01:42;13.52;;;3.70;;
71164;SDS011;58859;55.132;-1.586;2023-02-01T11:04:18;9.65;;;3.65;;
71164;SDS011;58859;55.132;-1.586;2023-02-01T11:09:40;3.70;;;1.90;;
71164;SDS011;58859;55.132;-1.586;2023-02-01T11:12:10;3.80;;;2.15;;
71164;SDS011;58859;55.132;-1.586;2023-02-01T11:14:48;5.13;;;1.27;;
71164;SDS011;58859;55.132;-1.586;2023-02-01T11:19:43;3.80;;;1.23;;
71164;SDS011;58859;55.132;-1.586;2023-02-01T11:22:10;6.57;;;1.92;;
71164;SDS011;58859;55.132;-1.586;2023-02-01T11:24:37;3.58;;;1.15;;
71164;SDS011;58859;55.132;-1.586;2023-02-01T11:27:12;6.57;;;1.87;;
71164;SDS011;58859;55.132;-1.586;2023-02-01T11:29:44;6.10;;;1.85;;
71164;SDS011;58859;55.132;-1.586;2023-02-01T11:32:13;6.43;;;1.63;;
71164;SDS011;58859;55.132;-1.586;2023-02-01T11:34:43;4.63;;;2.10;;
71164;SDS011;58859;55.132;-1.586;2023-02-01T11:37:21;6.22;;;1.73;;
71164;SDS011;58859;55.132;-1.586;2023-02-01T11:42:52;4.85;;;1.60;;
71164;SDS011;58859;55.132;-1.586;2023-02-01T11:45:31;9.93;;;1.98;;
71164;SDS011;58859;55.132;-1.586;2023-02-01T11:48:06;4.15;;;1.75;;
71164;SDS011;58859;55.132;-1.586;2023-02-01T11:50:39;3.58;;;1.38;;
71164;SDS011;58859;55.132;-1.586;2023-02-01T12:15:46;5.43;;;1.10;;
71164;SDS011;58859;55.132;-1.586;2023-02-01T12:21:38;4.72;;;1.42;;
71164;SDS011;58859;55.132;-1.586;2023-02-01T12:35:06;5.07;;;1.35;;
71164;SDS011;58859;55.132;-1.586;2023-02-01T12:37:45;3.53;;;0.75;;
71164;SDS011;58859;55.132;-1.586;2023-02-01T12:42:57;1.58;;;0.90;;
71164;SDS011;58859;55.132;-1.586;2023-02-01T12:45:32;5.75;;;1.00;;
71164;SDS011;58859;55.132;-1.586;2023-02-01T12:51:14;8.35;;;1.50;;
71164;SDS011;58859;55.132;-1.586;2023-02-01T12:57:02;3.75;;;0.73;;
71164;SDS011;58859;55.132;-1.586;2023-02-01T12:59:16;3.50;;;0.50;;
71164;SDS011;58859;55.132;-1.586;2023-02-01T13:01:53;3.60;;;1.20;;
71164;SDS011;58859;55.132;-1.586;2023-02-01T13:04:29;3.05;;;0.75;;
71164;SDS011;58859;55.132;-1.586;2023-02-01T13:07:04;4.50;;;0.90;;
71164;SDS011;58859;55.132;-1.586;2023-02-01T13:09:37;3.03;;;0.95;;
71164;SDS011;58859;55.132;-1.586;2023-02-01T13:14:58;10.55;;;2.58;;
71164;SDS011;58859;55.132;-1.586;2023-02-01T13:17:31;5.55;;;1.83;;
71164;SDS011;58859;55.132;-1.586;2023-02-01T13:22:43;6.90;;;1.60;;
71164;SDS011;58859;55.132;-1.586;2023-02-01T13:25:15;8.60;;;1.88;;
71164;SDS011;58859;55.132;-1.586;2023-02-01T13:27:46;5.20;;;2.13;;
71164;SDS011;58859;55.132;-1.586;2023-02-01T13:30:20;4.85;;;1.20;;
71164;SDS011;58859;55.132;-1.586;2023-02-01T13:43:47;7.10;;;2.05;;
71164;SDS011;58859;55.132;-1.586;2023-02-01T13:46:15;8.15;;;2.40;;
71164;SDS011;58859;55.132;-1.586;2023-02-01T13:48:55;7.43;;;1.33;;
71164;SDS011;58859;55.132;-1.586;2023-02-01T13:51:33;3.50;;;1.60;;
71164;SDS011;58859;55.132;-1.586;2023-02-01T13:54:01;4.35;;;1.70;;
71164;SDS011;58859;55.132;-1.586;2023-02-01T13:56:28;4.13;;;1.33;;
71164;SDS011;58859;55.132;-1.586;2023-02-01T13:58:53;5.88;;;1.85;;
71164;SDS011;58859;55.132;-1.586;2023-02-01T14:04:00;3.83;;;1.65;;
71164;SDS011;58859;55.132;-1.586;2023-02-01T14:16:41;4.72;;;1.08;;
71164;SDS011;58859;55.132;-1.586;2023-02-01T14:19:08;5.97;;;1.10;;
71164;SDS011;58859;55.132;-1.586;2023-02-01T14:21:54;3.58;;;1.10;;
71164;SDS011;58859;55.132;-1.586;2023-02-01T14:26:59;2.10;;;1.15;;
71164;SDS011;58859;55.132;-1.586;2023-02-01T14:47:42;4.72;;;1.15;;
71164;SDS011;58859;55.132;-1.586;2023-02-01T14:52:43;5.35;;;1.52;;
71164;SDS011;58859;55.132;-1.586;2023-02-01T14:55:11;2.67;;;1.67;;
71164;SDS011;58859;55.132;-1.586;2023-02-01T14:57:40;4.30;;;0.95;;
71164;SDS011;58859;55.132;-1.586;2023-02-01T15:00:27;3.55;;;0.90;;
71164;SDS011;58859;55.132;-1.586;2023-02-01T15:02:55;4.20;;;1.20;;
71164;SDS011;58859;55.132;-1.586;2023-02-01T15:05:37;5.00;;;1.20;;
71164;SDS011;58859;55.132;-1.586;2023-02-01T15:08:04;4.55;;;1.13;;
71164;SDS011;58859;55.132;-1.586;2023-02-01T15:10:39;5.43;;;1.27;;
71164;SDS011;58859;55.132;-1.586;2023-02-01T15:13:12;3.85;;;0.98;;
71164;SDS011;58859;55.132;-1.586;2023-02-01T15:15:44;8.45;;;2.05;;
71164;SDS011;58859;55.132;-1.586;2023-02-01T15:18:14;5.20;;;1.60;;
71164;SDS011;58859;55.132;-1.586;2023-02-01T15:20:42;7.32;;;1.83;;
71164;SDS011;58859;55.132;-1.586;2023-02-01T15:23:15;3.60;;;0.80;;
71164;SDS011;58859;55.132;-1.586;2023-02-01T15:25:45;1.52;;;1.10;;
71164;SDS011;58859;55.132;-1.586;2023-02-01T15:28:12;4.90;;;1.98;;
71164;SDS011;58859;55.132;-1.586;2023-02-01T15:30:38;3.67;;;0.95;;
71164;SDS011;58859;55.132;-1.586;2023-02-01T15:33:13;3.03;;;1.67;;
71164;SDS011;58859;55.132;-1.586;2023-02-01T15:35:41;11.82;;;1.90;;
71164;SDS011;58859;55.132;-1.586;2023-02-01T15:40:56;4.72;;;1.25;;
71164;SDS011;58859;55.132;-1.586;2023-02-01T15:43:26;3.65;;;1.02;;
71164;SDS011;58859;55.132;-1.586;2023-02-01T15:45:55;5.32;;;1.20;;
71164;SDS011;58859;55.132;-1.586;2023-02-01T15:48:23;4.03;;;1.00;;
71164;SDS011;58859;55.132;-1.586;2023-02-01T15:50:54;4.88;;;1.20;;
71164;SDS011;58859;55.132;-1.586;2023-02-01T15:53:21;1.73;;;0.82;;
71164;SDS011;58859;55.132;-1.586;2023-02-01T15:55:51;3.40;;;1.83;;
71164;SDS011;58859;55.132;-1.586;2023-02-01T15:58:18;3.30;;;0.98;;
71164;SDS011;58859;55.132;-1.586;2023-02-01T16:00:50;3.30;;;1.10;;
71164;SDS011;58859;55.132;-1.586;2023-02-01T16:06:12;3.00;;;1.13;;
71164;SDS011;58859;55.132;-1.586;2023-02-01T16:08:54;1.95;;;1.13;;
71164;SDS011;58859;55.132;-1.586;2023-02-01T16:11:28;7.80;;;1.65;;
71164;SDS011;58859;55.132;-1.586;2023-02-01T16:13:59;2.60;;;1.08;;
71164;SDS011;58859;55.132;-1.586;2023-02-01T16:16:26;5.93;;;1.27;;
71164;SDS011;58859;55.132;-1.586;2023-02-01T16:18:52;8.90;;;1.83;;
71164;SDS011;58859;55.132;-1.586;2023-02-01T16:21:18;11.77;;;1.92;;
71164;SDS011;58859;55.132;-1.586;2023-02-01T16:23:43;8.13;;;2.00;;
71164;SDS011;58859;55.132;-1.586;2023-02-01T16:26:14;10.23;;;1.73;;
71164;SDS011;58859;55.132;-1.586;2023-02-01T16:28:39;8.90;;;2.67;;
71164;SDS011;58859;55.132;-1.586;2023-02-01T16:31:05;7.60;;;2.10;;
71164;SDS011;58859;55.132;-1.586;2023-02-01T16:33:33;9.82;;;2.10;;
71164;SDS011;58859;55.132;-1.586;2023-02-01T16:35:58;7.83;;;2.27;;
71164;SDS011;58859;55.132;-1.586;2023-02-01T16:38:27;6.50;;;1.33;;
71164;SDS011;58859;55.132;-1.586;2023-02-01T16:40:55;5.13;;;1.20;;
71164;SDS011;58859;55.132;-1.586;2023-02-01T16:43:23;2.90;;;1.40;;
71164;SDS011;58859;55.132;-1.586;2023-02-01T16:45:49;2.03;;;1.00;;
71164;SDS011;58859;55.132;-1.586;2023-02-01T16:48:24;3.40;;;1.55;;
71164;SDS011;58859;55.132;-1.586;2023-02-01T16:50:58;3.53;;;1.10;;
71164;SDS011;58859;55.132;-1.586;2023-02-01T16:53:25;1.70;;;1.27;;
71164;SDS011;58859;55.132;-1.586;2023-02-01T16:55:52;5.13;;;1.80;;
71164;SDS011;58859;55.132;-1.586;2023-02-01T16:58:19;2.33;;;1.37;;
71164;SDS011;58859;55.132;-1.586;2023-02-01T17:00:45;2.38;;;1.02;;
71164;SDS011;58859;55.132;-1.586;2023-02-01T17:03:11;3.22;;;1.35;;
71164;SDS011;58859;55.132;-1.586;2023-02-01T17:05:42;1.05;;;0.75;;
71164;SDS011;58859;55.132;-1.586;2023-02-01T17:08:09;4.50;;;1.13;;
71164;SDS011;58859;55.132;-1.586;2023-02-01T17:10:38;3.20;;;0.80;;
71164;SDS011;58859;55.132;-1.586;2023-02-01T17:13:03;8.48;;;2.95;;
71164;SDS011;58859;55.132;-1.586;2023-02-01T17:15:31;3.30;;;1.80;;
71164;SDS011;58859;55.132;-1.586;2023-02-01T17:18:01;1.90;;;1.40;;
71164;SDS011;58859;55.132;-1.586;2023-02-01T17:20:28;4.93;;;2.93;;
71164;SDS011;58859;55.132;-1.586;2023-02-01T17:22:56;6.70;;;2.53;;
71164;SDS011;58859;55.132;-1.586;2023-02-01T17:25:22;5.60;;;2.40;;
71164;SDS011;58859;55.132;-1.586;2023-02-01T17:27:49;7.28;;;3.53;;
71164;SDS011;58859;55.132;-1.586;2023-02-01T17:30:15;2.77;;;1.50;;
71164;SDS011;58859;55.132;-1.586;2023-02-01T17:32:41;4.55;;;1.85;;